sensor_id;sensor_type;location;lat;lon;timestamp;temperature;humidity
15872;DHT22;8035;51.962;7.162;2023-05-07T00:00:34;14.30;99.90
15872;DHT22;8035;51.962;7.162;2023-05-07T00:02:59;14.20;99.90
15872;DHT22;8035;51.962;7.162;2023-05-07T00:05:25;14.10;99.90
15872;DHT22;8035;51.962;7.162;2023-05-07T00:07:51;14.10;99.90
15872;DHT22;8035;51.962;7.162;2023-05-07T00:10:18;14.10;99.90
15872;DHT22;8035;51.962;7.162;2023-05-07T00:12:44;14.00;99.90
15872;DHT22;8035;51.962;7.162;2023-05-07T00:15:10;14.00;99.90
15872;DHT22;8035;51.962;7.162;2023-05-07T00:17:36;14.00;99.90
15872;DHT22;8035;51.962;7.162;2023-05-07T00:20:02;14.00;99.90
15872;DHT22;8035;51.962;7.162;2023-05-07T00:22:29;14.10;99.90
15872;DHT22;8035;51.962;7.162;2023-05-07T00:24:55;14.10;99.90
15872;DHT22;8035;51.962;7.162;2023-05-07T00:27:21;14.10;99.90
15872;DHT22;8035;51.962;7.162;2023-05-07T00:29:47;14.10;99.90
15872;DHT22;8035;51.962;7.162;2023-05-07T00:32:12;14.10;99.90
15872;DHT22;8035;51.962;7.162;2023-05-07T00:34:38;14.10;99.90
15872;DHT22;8035;51.962;7.162;2023-05-07T00:37:05;14.10;99.90
15872;DHT22;8035;51.962;7.162;2023-05-07T00:39:32;14.10;99.90
15872;DHT22;8035;51.962;7.162;2023-05-07T00:41:58;14.10;99.90
15872;DHT22;8035;51.962;7.162;2023-05-07T00:44:24;14.10;99.90
15872;DHT22;8035;51.962;7.162;2023-05-07T00:46:50;14.00;99.90
15872;DHT22;8035;51.962;7.162;2023-05-07T00:49:16;14.00;99.90
15872;DHT22;8035;51.962;7.162;2023-05-07T00:51:42;14.00;99.90
15872;DHT22;8035;51.962;7.162;2023-05-07T00:54:08;14.00;99.90
15872;DHT22;8035;51.962;7.162;2023-05-07T00:56:34;13.90;99.90
15872;DHT22;8035;51.962;7.162;2023-05-07T00:59:01;14.00;99.90
15872;DHT22;8035;51.962;7.162;2023-05-07T01:01:28;14.00;99.90
15872;DHT22;8035;51.962;7.162;2023-05-07T01:03:53;14.00;99.90
15872;DHT22;8035;51.962;7.162;2023-05-07T01:06:21;13.90;99.90
15872;DHT22;8035;51.962;7.162;2023-05-07T01:08:47;13.90;99.90
15872;DHT22;8035;51.962;7.162;2023-05-07T01:11:15;13.90;99.90
15872;DHT22;8035;51.962;7.162;2023-05-07T01:13:41;13.80;99.90
15872;DHT22;8035;51.962;7.162;2023-05-07T01:16:08;13.80;99.90
15872;DHT22;8035;51.962;7.162;2023-05-07T01:18:34;13.80;99.90
15872;DHT22;8035;51.962;7.162;2023-05-07T01:21:01;13.90;99.90
15872;DHT22;8035;51.962;7.162;2023-05-07T01:23:29;13.90;99.90
15872;DHT22;8035;51.962;7.162;2023-05-07T01:25:56;13.90;99.90
15872;DHT22;8035;51.962;7.162;2023-05-07T01:28:22;13.90;99.90
15872;DHT22;8035;51.962;7.162;2023-05-07T01:30:52;13.80;99.90
15872;DHT22;8035;51.962;7.162;2023-05-07T01:33:20;13.80;99.90
15872;DHT22;8035;51.962;7.162;2023-05-07T01:35:52;13.80;99.90
15872;DHT22;8035;51.962;7.162;2023-05-07T01:38:19;13.80;99.90
15872;DHT22;8035;51.962;7.162;2023-05-07T01:40:46;13.80;99.90
15872;DHT22;8035;51.962;7.162;2023-05-07T01:43:12;13.80;99.90
15872;DHT22;8035;51.962;7.162;2023-05-07T01:45:39;13.70;99.90
15872;DHT22;8035;51.962;7.162;2023-05-07T01:48:07;13.70;99.90
15872;DHT22;8035;51.962;7.162;2023-05-07T01:50:33;13.70;99.90
15872;DHT22;8035;51.962;7.162;2023-05-07T01:53:01;13.70;99.90
15872;DHT22;8035;51.962;7.162;2023-05-07T01:55:28;13.70;99.90
15872;DHT22;8035;51.962;7.162;2023-05-07T01:57:53;13.70;99.90
15872;DHT22;8035;51.962;7.162;2023-05-07T02:00:19;13.70;99.90
15872;DHT22;8035;51.962;7.162;2023-05-07T02:02:45;13.70;99.90
15872;DHT22;8035;51.962;7.162;2023-05-07T02:05:10;13.70;99.90
15872;DHT22;8035;51.962;7.162;2023-05-07T02:07:36;13.70;99.90
15872;DHT22;8035;51.962;7.162;2023-05-07T02:10:02;13.70;99.90
15872;DHT22;8035;51.962;7.162;2023-05-07T02:12:28;13.70;99.90
15872;DHT22;8035;51.962;7.162;2023-05-07T02:14:54;13.80;99.90
15872;DHT22;8035;51.962;7.162;2023-05-07T02:17:19;13.70;99.90
15872;DHT22;8035;51.962;7.162;2023-05-07T02:19:45;13.70;99.90
15872;DHT22;8035;51.962;7.162;2023-05-07T02:22:11;13.70;99.90
15872;DHT22;8035;51.962;7.162;2023-05-07T02:24:36;13.70;99.90
15872;DHT22;8035;51.962;7.162;2023-05-07T02:27:02;13.70;99.90
15872;DHT22;8035;51.962;7.162;2023-05-07T02:29:29;13.70;99.90
15872;DHT22;8035;51.962;7.162;2023-05-07T02:31:54;13.70;99.90
15872;DHT22;8035;51.962;7.162;2023-05-07T02:34:20;13.70;99.90
15872;DHT22;8035;51.962;7.162;2023-05-07T02:36:46;13.70;99.90
15872;DHT22;8035;51.962;7.162;2023-05-07T02:39:13;13.60;99.90
15872;DHT22;8035;51.962;7.162;2023-05-07T02:41:39;13.60;99.90
15872;DHT22;8035;51.962;7.162;2023-05-07T02:44:04;13.60;99.90
15872;DHT22;8035;51.962;7.162;2023-05-07T02:46:30;13.60;99.90
15872;DHT22;8035;51.962;7.162;2023-05-07T02:48:56;13.60;99.90
15872;DHT22;8035;51.962;7.162;2023-05-07T02:51:22;13.60;99.90
15872;DHT22;8035;51.962;7.162;2023-05-07T02:53:48;13.50;99.90
15872;DHT22;8035;51.962;7.162;2023-05-07T02:56:14;13.50;99.90
15872;DHT22;8035;51.962;7.162;2023-05-07T02:58:40;13.50;99.90
15872;DHT22;8035;51.962;7.162;2023-05-07T03:01:07;13.40;99.90
15872;DHT22;8035;51.962;7.162;2023-05-07T03:03:33;13.30;99.90
15872;DHT22;8035;51.962;7.162;2023-05-07T03:05:59;13.30;99.90
15872;DHT22;8035;51.962;7.162;2023-05-07T03:08:25;13.30;99.90
15872;DHT22;8035;51.962;7.162;2023-05-07T03:10:51;13.20;99.90
15872;DHT22;8035;51.962;7.162;2023-05-07T03:13:17;13.20;99.90
15872;DHT22;8035;51.962;7.162;2023-05-07T03:15:42;13.20;99.90
15872;DHT22;8035;51.962;7.162;2023-05-07T03:18:08;13.20;99.90
15872;DHT22;8035;51.962;7.162;2023-05-07T03:20:34;13.20;99.90
15872;DHT22;8035;51.962;7.162;2023-05-07T03:23:00;13.10;99.90
15872;DHT22;8035;51.962;7.162;2023-05-07T03:25:25;13.10;99.90
15872;DHT22;8035;51.962;7.162;2023-05-07T03:27:51;13.10;99.90
15872;DHT22;8035;51.962;7.162;2023-05-07T03:30:16;13.10;99.90
15872;DHT22;8035;51.962;7.162;2023-05-07T03:32:42;13.10;99.90
15872;DHT22;8035;51.962;7.162;2023-05-07T03:35:08;13.00;99.90
15872;DHT22;8035;51.962;7.162;2023-05-07T03:37:33;13.00;99.90
15872;DHT22;8035;51.962;7.162;2023-05-07T03:39:59;13.00;99.90
15872;DHT22;8035;51.962;7.162;2023-05-07T03:42:25;12.90;99.90
15872;DHT22;8035;51.962;7.162;2023-05-07T03:44:50;12.90;99.90
15872;DHT22;8035;51.962;7.162;2023-05-07T03:47:16;12.90;99.90
15872;DHT22;8035;51.962;7.162;2023-05-07T03:49:41;12.90;99.90
15872;DHT22;8035;51.962;7.162;2023-05-07T03:52:07;12.80;99.90
15872;DHT22;8035;51.962;7.162;2023-05-07T03:54:32;12.80;99.90
15872;DHT22;8035;51.962;7.162;2023-05-07T03:56:58;12.80;99.90
15872;DHT22;8035;51.962;7.162;2023-05-07T03:59:24;12.80;99.90
15872;DHT22;8035;51.962;7.162;2023-05-07T04:01:49;12.80;99.90
15872;DHT22;8035;51.962;7.162;2023-05-07T04:04:15;12.80;99.90
15872;DHT22;8035;51.962;7.162;2023-05-07T04:06:41;12.80;99.90
15872;DHT22;8035;51.962;7.162;2023-05-07T04:09:07;12.80;99.90
15872;DHT22;8035;51.962;7.162;2023-05-07T04:11:33;12.80;99.90
15872;DHT22;8035;51.962;7.162;2023-05-07T04:13:58;12.70;99.90
15872;DHT22;8035;51.962;7.162;2023-05-07T04:16:24;12.70;99.90
15872;DHT22;8035;51.962;7.162;2023-05-07T04:18:49;12.70;99.90
15872;DHT22;8035;51.962;7.162;2023-05-07T04:21:17;12.70;99.90
15872;DHT22;8035;51.962;7.162;2023-05-07T04:23:42;12.70;99.90
15872;DHT22;8035;51.962;7.162;2023-05-07T04:26:08;12.70;99.90
15872;DHT22;8035;51.962;7.162;2023-05-07T04:28:34;12.70;99.90
15872;DHT22;8035;51.962;7.162;2023-05-07T04:31:00;12.70;99.90
15872;DHT22;8035;51.962;7.162;2023-05-07T04:33:25;12.70;99.90
15872;DHT22;8035;51.962;7.162;2023-05-07T04:35:51;12.70;99.90
15872;DHT22;8035;51.962;7.162;2023-05-07T04:38:17;12.70;99.90
15872;DHT22;8035;51.962;7.162;2023-05-07T04:40:44;12.70;99.90
15872;DHT22;8035;51.962;7.162;2023-05-07T04:43:09;12.70;99.90
15872;DHT22;8035;51.962;7.162;2023-05-07T04:45:36;12.70;99.90
15872;DHT22;8035;51.962;7.162;2023-05-07T04:48:01;12.70;99.90
15872;DHT22;8035;51.962;7.162;2023-05-07T04:50:27;12.70;99.90
15872;DHT22;8035;51.962;7.162;2023-05-07T04:52:53;12.70;99.90
15872;DHT22;8035;51.962;7.162;2023-05-07T04:55:18;12.70;99.90
15872;DHT22;8035;51.962;7.162;2023-05-07T04:57:44;12.70;99.90
15872;DHT22;8035;51.962;7.162;2023-05-07T05:00:11;12.70;99.90
15872;DHT22;8035;51.962;7.162;2023-05-07T05:02:40;12.80;99.90
15872;DHT22;8035;51.962;7.162;2023-05-07T05:05:06;12.80;99.90
15872;DHT22;8035;51.962;7.162;2023-05-07T05:07:32;12.80;99.90
15872;DHT22;8035;51.962;7.162;2023-05-07T05:09:58;12.90;99.90
15872;DHT22;8035;51.962;7.162;2023-05-07T05:12:23;12.90;99.90
15872;DHT22;8035;51.962;7.162;2023-05-07T05:14:49;13.00;99.90
15872;DHT22;8035;51.962;7.162;2023-05-07T05:17:15;13.00;99.90
15872;DHT22;8035;51.962;7.162;2023-05-07T05:19:40;13.00;99.90
15872;DHT22;8035;51.962;7.162;2023-05-07T05:22:06;13.10;99.90
15872;DHT22;8035;51.962;7.162;2023-05-07T05:24:32;13.10;99.90
15872;DHT22;8035;51.962;7.162;2023-05-07T05:26:57;13.10;99.90
15872;DHT22;8035;51.962;7.162;2023-05-07T05:29:25;13.10;99.90
15872;DHT22;8035;51.962;7.162;2023-05-07T05:31:50;13.20;99.90
15872;DHT22;8035;51.962;7.162;2023-05-07T05:34:16;13.20;99.90
15872;DHT22;8035;51.962;7.162;2023-05-07T05:36:42;13.20;99.90
15872;DHT22;8035;51.962;7.162;2023-05-07T05:39:08;13.30;99.90
15872;DHT22;8035;51.962;7.162;2023-05-07T05:41:34;13.30;99.90
15872;DHT22;8035;51.962;7.162;2023-05-07T05:44:00;13.40;99.90
15872;DHT22;8035;51.962;7.162;2023-05-07T05:46:25;13.50;99.90
15872;DHT22;8035;51.962;7.162;2023-05-07T05:48:51;13.60;99.90
15872;DHT22;8035;51.962;7.162;2023-05-07T05:51:16;13.80;99.90
15872;DHT22;8035;51.962;7.162;2023-05-07T05:53:42;13.80;99.90
15872;DHT22;8035;51.962;7.162;2023-05-07T05:56:07;13.90;99.90
15872;DHT22;8035;51.962;7.162;2023-05-07T05:58:33;14.00;99.90
15872;DHT22;8035;51.962;7.162;2023-05-07T06:00:59;13.90;99.90
15872;DHT22;8035;51.962;7.162;2023-05-07T06:03:25;13.90;99.90
15872;DHT22;8035;51.962;7.162;2023-05-07T06:05:51;14.00;99.90
15872;DHT22;8035;51.962;7.162;2023-05-07T06:08:16;14.10;99.90
15872;DHT22;8035;51.962;7.162;2023-05-07T06:10:42;14.10;99.90
15872;DHT22;8035;51.962;7.162;2023-05-07T06:13:08;14.10;99.90
15872;DHT22;8035;51.962;7.162;2023-05-07T06:15:34;14.20;99.90
15872;DHT22;8035;51.962;7.162;2023-05-07T06:17:59;14.20;99.90
15872;DHT22;8035;51.962;7.162;2023-05-07T06:20:25;14.20;99.90
15872;DHT22;8035;51.962;7.162;2023-05-07T06:22:50;14.30;99.90
15872;DHT22;8035;51.962;7.162;2023-05-07T06:25:16;14.30;99.90
15872;DHT22;8035;51.962;7.162;2023-05-07T06:27:41;14.30;99.90
15872;DHT22;8035;51.962;7.162;2023-05-07T06:30:08;14.30;99.90
15872;DHT22;8035;51.962;7.162;2023-05-07T06:32:34;14.30;99.90
15872;DHT22;8035;51.962;7.162;2023-05-07T06:34:59;14.40;99.90
15872;DHT22;8035;51.962;7.162;2023-05-07T06:37:25;14.50;99.90
15872;DHT22;8035;51.962;7.162;2023-05-07T06:39:51;14.50;99.90
15872;DHT22;8035;51.962;7.162;2023-05-07T06:42:16;14.50;99.90
15872;DHT22;8035;51.962;7.162;2023-05-07T06:44:42;14.50;99.90
15872;DHT22;8035;51.962;7.162;2023-05-07T06:47:07;14.50;99.90
15872;DHT22;8035;51.962;7.162;2023-05-07T06:49:33;14.60;99.90
15872;DHT22;8035;51.962;7.162;2023-05-07T06:51:58;14.70;99.90
15872;DHT22;8035;51.962;7.162;2023-05-07T06:54:24;14.70;99.90
15872;DHT22;8035;51.962;7.162;2023-05-07T06:56:50;14.70;99.90
15872;DHT22;8035;51.962;7.162;2023-05-07T06:59:15;14.80;99.90
15872;DHT22;8035;51.962;7.162;2023-05-07T07:01:41;14.90;99.90
15872;DHT22;8035;51.962;7.162;2023-05-07T07:04:07;15.10;99.90
15872;DHT22;8035;51.962;7.162;2023-05-07T07:06:32;15.30;99.90
15872;DHT22;8035;51.962;7.162;2023-05-07T07:08:59;15.40;99.90
15872;DHT22;8035;51.962;7.162;2023-05-07T07:11:25;15.60;99.90
15872;DHT22;8035;51.962;7.162;2023-05-07T07:13:50;15.70;99.90
15872;DHT22;8035;51.962;7.162;2023-05-07T07:16:16;15.70;99.90
15872;DHT22;8035;51.962;7.162;2023-05-07T07:18:42;15.70;99.90
15872;DHT22;8035;51.962;7.162;2023-05-07T07:21:07;15.70;99.90
15872;DHT22;8035;51.962;7.162;2023-05-07T07:23:33;15.80;99.90
15872;DHT22;8035;51.962;7.162;2023-05-07T07:25:59;15.90;99.90
15872;DHT22;8035;51.962;7.162;2023-05-07T07:28:24;16.00;99.90
15872;DHT22;8035;51.962;7.162;2023-05-07T07:30:50;16.10;99.90
15872;DHT22;8035;51.962;7.162;2023-05-07T07:33:16;16.10;99.90
15872;DHT22;8035;51.962;7.162;2023-05-07T07:35:41;16.10;99.90
15872;DHT22;8035;51.962;7.162;2023-05-07T07:38:07;16.20;99.90
15872;DHT22;8035;51.962;7.162;2023-05-07T07:40:35;16.20;99.90
15872;DHT22;8035;51.962;7.162;2023-05-07T07:43:00;16.20;99.90
15872;DHT22;8035;51.962;7.162;2023-05-07T07:45:26;16.20;99.90
15872;DHT22;8035;51.962;7.162;2023-05-07T07:47:52;16.30;99.90
15872;DHT22;8035;51.962;7.162;2023-05-07T07:50:18;16.30;99.90
15872;DHT22;8035;51.962;7.162;2023-05-07T07:52:44;16.40;99.90
15872;DHT22;8035;51.962;7.162;2023-05-07T07:55:09;16.60;99.90
15872;DHT22;8035;51.962;7.162;2023-05-07T07:57:35;16.70;99.90
15872;DHT22;8035;51.962;7.162;2023-05-07T08:00:01;16.70;99.90
15872;DHT22;8035;51.962;7.162;2023-05-07T08:02:27;16.80;99.90
15872;DHT22;8035;51.962;7.162;2023-05-07T08:04:53;16.70;99.90
15872;DHT22;8035;51.962;7.162;2023-05-07T08:07:18;16.70;99.90
15872;DHT22;8035;51.962;7.162;2023-05-07T08:09:46;16.60;99.90
15872;DHT22;8035;51.962;7.162;2023-05-07T08:12:11;16.60;99.90
15872;DHT22;8035;51.962;7.162;2023-05-07T08:14:37;16.50;99.90
15872;DHT22;8035;51.962;7.162;2023-05-07T08:17:03;16.60;99.90
15872;DHT22;8035;51.962;7.162;2023-05-07T08:19:28;16.60;99.90
15872;DHT22;8035;51.962;7.162;2023-05-07T08:21:54;16.70;99.90
15872;DHT22;8035;51.962;7.162;2023-05-07T08:24:21;16.90;99.90
15872;DHT22;8035;51.962;7.162;2023-05-07T08:26:46;17.10;99.90
15872;DHT22;8035;51.962;7.162;2023-05-07T08:29:12;17.30;99.90
15872;DHT22;8035;51.962;7.162;2023-05-07T08:31:37;17.40;99.90
15872;DHT22;8035;51.962;7.162;2023-05-07T08:34:06;17.40;99.90
15872;DHT22;8035;51.962;7.162;2023-05-07T08:36:32;17.40;99.90
15872;DHT22;8035;51.962;7.162;2023-05-07T08:38:58;17.50;99.90
15872;DHT22;8035;51.962;7.162;2023-05-07T08:41:24;17.60;99.90
15872;DHT22;8035;51.962;7.162;2023-05-07T08:43:50;17.70;99.90
15872;DHT22;8035;51.962;7.162;2023-05-07T08:46:20;17.70;99.90
15872;DHT22;8035;51.962;7.162;2023-05-07T08:48:51;17.70;99.90
15872;DHT22;8035;51.962;7.162;2023-05-07T08:51:21;17.70;99.90
15872;DHT22;8035;51.962;7.162;2023-05-07T08:53:48;17.70;99.90
15872;DHT22;8035;51.962;7.162;2023-05-07T08:56:14;17.70;99.90
15872;DHT22;8035;51.962;7.162;2023-05-07T08:58:42;17.70;99.90
15872;DHT22;8035;51.962;7.162;2023-05-07T09:01:09;17.70;99.90
15872;DHT22;8035;51.962;7.162;2023-05-07T09:03:37;17.80;99.90
15872;DHT22;8035;51.962;7.162;2023-05-07T09:06:03;18.00;99.90
15872;DHT22;8035;51.962;7.162;2023-05-07T09:08:29;18.20;99.90
15872;DHT22;8035;51.962;7.162;2023-05-07T09:10:54;18.20;99.90
15872;DHT22;8035;51.962;7.162;2023-05-07T09:13:20;18.20;99.90
15872;DHT22;8035;51.962;7.162;2023-05-07T09:15:46;18.10;99.90
15872;DHT22;8035;51.962;7.162;2023-05-07T09:18:12;18.10;99.90
15872;DHT22;8035;51.962;7.162;2023-05-07T09:20:39;18.20;99.90
15872;DHT22;8035;51.962;7.162;2023-05-07T09:23:06;18.30;99.90
15872;DHT22;8035;51.962;7.162;2023-05-07T09:25:34;18.40;99.90
15872;DHT22;8035;51.962;7.162;2023-05-07T09:28:01;18.50;99.90
15872;DHT22;8035;51.962;7.162;2023-05-07T09:30:30;18.70;99.90
15872;DHT22;8035;51.962;7.162;2023-05-07T09:32:58;19.00;99.90
15872;DHT22;8035;51.962;7.162;2023-05-07T09:35:24;19.30;99.90
15872;DHT22;8035;51.962;7.162;2023-05-07T09:37:57;19.50;99.90
15872;DHT22;8035;51.962;7.162;2023-05-07T09:40:23;19.60;99.90
15872;DHT22;8035;51.962;7.162;2023-05-07T09:42:49;19.70;99.90
15872;DHT22;8035;51.962;7.162;2023-05-07T09:45:16;19.70;99.90
15872;DHT22;8035;51.962;7.162;2023-05-07T09:47:43;19.80;99.90
15872;DHT22;8035;51.962;7.162;2023-05-07T09:50:12;19.90;99.90
15872;DHT22;8035;51.962;7.162;2023-05-07T09:52:40;20.00;99.90
15872;DHT22;8035;51.962;7.162;2023-05-07T09:55:07;20.00;99.90
15872;DHT22;8035;51.962;7.162;2023-05-07T09:57:34;20.20;99.90
15872;DHT22;8035;51.962;7.162;2023-05-07T10:00:02;20.40;99.90
15872;DHT22;8035;51.962;7.162;2023-05-07T10:02:30;20.30;99.90
15872;DHT22;8035;51.962;7.162;2023-05-07T10:04:57;20.40;99.90
15872;DHT22;8035;51.962;7.162;2023-05-07T10:07:25;20.30;99.90
15872;DHT22;8035;51.962;7.162;2023-05-07T10:09:52;20.30;99.90
15872;DHT22;8035;51.962;7.162;2023-05-07T10:12:18;20.20;99.90
15872;DHT22;8035;51.962;7.162;2023-05-07T10:14:45;20.50;99.90
15872;DHT22;8035;51.962;7.162;2023-05-07T10:17:13;20.50;99.90
15872;DHT22;8035;51.962;7.162;2023-05-07T10:19:42;20.70;99.90
15872;DHT22;8035;51.962;7.162;2023-05-07T10:22:09;20.80;99.90
15872;DHT22;8035;51.962;7.162;2023-05-07T10:24:36;20.90;99.90
15872;DHT22;8035;51.962;7.162;2023-05-07T10:27:07;21.10;99.90
15872;DHT22;8035;51.962;7.162;2023-05-07T10:32:27;20.80;99.90
15872;DHT22;8035;51.962;7.162;2023-05-07T10:35:00;20.90;99.90
15872;DHT22;8035;51.962;7.162;2023-05-07T10:37:27;21.10;99.90
15872;DHT22;8035;51.962;7.162;2023-05-07T10:39:53;21.10;99.90
15872;DHT22;8035;51.962;7.162;2023-05-07T10:42:18;21.20;99.90
15872;DHT22;8035;51.962;7.162;2023-05-07T10:44:44;21.20;99.90
15872;DHT22;8035;51.962;7.162;2023-05-07T10:47:12;21.30;99.90
15872;DHT22;8035;51.962;7.162;2023-05-07T10:54:44;21.40;99.90
15872;DHT22;8035;51.962;7.162;2023-05-07T10:57:33;21.60;99.90
15872;DHT22;8035;51.962;7.162;2023-05-07T11:00:01;21.60;99.90
15872;DHT22;8035;51.962;7.162;2023-05-07T11:05:28;21.60;99.90
15872;DHT22;8035;51.962;7.162;2023-05-07T11:07:59;21.80;99.90
15872;DHT22;8035;51.962;7.162;2023-05-07T11:10:47;21.90;99.90
15872;DHT22;8035;51.962;7.162;2023-05-07T11:13:14;21.80;99.90
15872;DHT22;8035;51.962;7.162;2023-05-07T11:15:43;21.80;99.90
15872;DHT22;8035;51.962;7.162;2023-05-07T11:18:10;22.00;99.90
15872;DHT22;8035;51.962;7.162;2023-05-07T11:20:53;22.10;99.90
15872;DHT22;8035;51.962;7.162;2023-05-07T11:26:06;22.00;99.90
15872;DHT22;8035;51.962;7.162;2023-05-07T11:28:41;22.10;99.90
15872;DHT22;8035;51.962;7.162;2023-05-07T11:31:08;22.20;99.90
15872;DHT22;8035;51.962;7.162;2023-05-07T11:33:35;22.20;99.90
15872;DHT22;8035;51.962;7.162;2023-05-07T11:36:02;22.10;99.90
15872;DHT22;8035;51.962;7.162;2023-05-07T11:38:35;21.90;99.90
15872;DHT22;8035;51.962;7.162;2023-05-07T11:41:02;21.80;99.90
15872;DHT22;8035;51.962;7.162;2023-05-07T11:43:29;22.00;99.90
15872;DHT22;8035;51.962;7.162;2023-05-07T11:46:11;22.20;99.90
15872;DHT22;8035;51.962;7.162;2023-05-07T11:48:37;22.30;99.90
15872;DHT22;8035;51.962;7.162;2023-05-07T11:51:05;22.40;99.90
15872;DHT22;8035;51.962;7.162;2023-05-07T11:53:38;22.40;99.90
15872;DHT22;8035;51.962;7.162;2023-05-07T11:56:13;22.60;99.90
15872;DHT22;8035;51.962;7.162;2023-05-07T11:58:40;22.60;99.90
15872;DHT22;8035;51.962;7.162;2023-05-07T12:01:08;22.70;99.90
15872;DHT22;8035;51.962;7.162;2023-05-07T12:03:34;22.90;99.90
15872;DHT22;8035;51.962;7.162;2023-05-07T12:06:00;23.10;99.90
15872;DHT22;8035;51.962;7.162;2023-05-07T12:08:26;23.30;99.90
15872;DHT22;8035;51.962;7.162;2023-05-07T12:10:51;23.40;99.90
15872;DHT22;8035;51.962;7.162;2023-05-07T12:13:19;23.50;99.90
15872;DHT22;8035;51.962;7.162;2023-05-07T12:15:45;23.50;99.90
15872;DHT22;8035;51.962;7.162;2023-05-07T12:18:11;23.60;99.90
15872;DHT22;8035;51.962;7.162;2023-05-07T12:20:38;23.50;99.90
15872;DHT22;8035;51.962;7.162;2023-05-07T12:23:04;23.70;99.90
15872;DHT22;8035;51.962;7.162;2023-05-07T12:25:40;23.50;99.90
15872;DHT22;8035;51.962;7.162;2023-05-07T12:28:15;23.40;99.90
15872;DHT22;8035;51.962;7.162;2023-05-07T12:30:43;23.20;99.90
15872;DHT22;8035;51.962;7.162;2023-05-07T12:33:09;23.20;99.90
15872;DHT22;8035;51.962;7.162;2023-05-07T12:35:40;23.20;99.90
15872;DHT22;8035;51.962;7.162;2023-05-07T12:38:10;23.20;99.90
15872;DHT22;8035;51.962;7.162;2023-05-07T12:40:38;23.00;99.90
15872;DHT22;8035;51.962;7.162;2023-05-07T12:43:04;23.00;99.90
15872;DHT22;8035;51.962;7.162;2023-05-07T12:45:29;22.90;99.90
15872;DHT22;8035;51.962;7.162;2023-05-07T12:47:55;23.00;99.90
15872;DHT22;8035;51.962;7.162;2023-05-07T12:50:21;23.00;99.90
15872;DHT22;8035;51.962;7.162;2023-05-07T12:52:47;23.00;99.90
15872;DHT22;8035;51.962;7.162;2023-05-07T12:55:15;23.00;99.90
15872;DHT22;8035;51.962;7.162;2023-05-07T12:57:42;23.00;99.90
15872;DHT22;8035;51.962;7.162;2023-05-07T13:00:10;23.00;99.90
15872;DHT22;8035;51.962;7.162;2023-05-07T13:02:40;23.00;99.90
15872;DHT22;8035;51.962;7.162;2023-05-07T13:05:06;23.10;99.90
15872;DHT22;8035;51.962;7.162;2023-05-07T13:07:32;22.90;99.90
15872;DHT22;8035;51.962;7.162;2023-05-07T13:09:58;22.80;99.90
15872;DHT22;8035;51.962;7.162;2023-05-07T13:12:24;23.00;99.90
15872;DHT22;8035;51.962;7.162;2023-05-07T13:14:49;23.10;99.90
15872;DHT22;8035;51.962;7.162;2023-05-07T13:17:15;23.00;99.90
15872;DHT22;8035;51.962;7.162;2023-05-07T13:19:40;23.00;99.90
15872;DHT22;8035;51.962;7.162;2023-05-07T13:22:06;23.00;99.90
15872;DHT22;8035;51.962;7.162;2023-05-07T13:24:32;22.90;99.90
15872;DHT22;8035;51.962;7.162;2023-05-07T13:26:57;22.70;99.90
15872;DHT22;8035;51.962;7.162;2023-05-07T13:29:23;22.60;99.90
15872;DHT22;8035;51.962;7.162;2023-05-07T13:31:54;22.50;99.90
15872;DHT22;8035;51.962;7.162;2023-05-07T13:34:20;22.60;99.90
15872;DHT22;8035;51.962;7.162;2023-05-07T13:36:45;22.40;99.90
15872;DHT22;8035;51.962;7.162;2023-05-07T13:39:11;22.20;99.90
15872;DHT22;8035;51.962;7.162;2023-05-07T13:41:36;22.20;99.90
15872;DHT22;8035;51.962;7.162;2023-05-07T13:44:02;22.20;99.90
15872;DHT22;8035;51.962;7.162;2023-05-07T13:46:28;22.10;99.90
15872;DHT22;8035;51.962;7.162;2023-05-07T13:48:55;22.10;99.90
15872;DHT22;8035;51.962;7.162;2023-05-07T13:51:20;22.10;99.90
15872;DHT22;8035;51.962;7.162;2023-05-07T13:53:46;22.10;99.90
15872;DHT22;8035;51.962;7.162;2023-05-07T13:56:12;22.10;99.90
15872;DHT22;8035;51.962;7.162;2023-05-07T13:58:38;22.00;99.90
15872;DHT22;8035;51.962;7.162;2023-05-07T14:01:04;21.80;99.90
15872;DHT22;8035;51.962;7.162;2023-05-07T14:03:29;21.60;99.90
15872;DHT22;8035;51.962;7.162;2023-05-07T14:05:57;21.50;99.90
15872;DHT22;8035;51.962;7.162;2023-05-07T14:08:23;21.40;99.90
15872;DHT22;8035;51.962;7.162;2023-05-07T14:10:48;21.30;99.90
15872;DHT22;8035;51.962;7.162;2023-05-07T14:13:14;21.30;99.90
15872;DHT22;8035;51.962;7.162;2023-05-07T14:15:40;21.40;99.90
15872;DHT22;8035;51.962;7.162;2023-05-07T14:18:05;21.40;99.90
15872;DHT22;8035;51.962;7.162;2023-05-07T14:20:31;21.40;99.90
15872;DHT22;8035;51.962;7.162;2023-05-07T14:22:57;21.30;99.90
15872;DHT22;8035;51.962;7.162;2023-05-07T14:25:23;21.20;99.90
15872;DHT22;8035;51.962;7.162;2023-05-07T14:27:48;21.10;99.90
15872;DHT22;8035;51.962;7.162;2023-05-07T14:30:14;21.10;99.90
15872;DHT22;8035;51.962;7.162;2023-05-07T14:32:39;21.00;99.90
15872;DHT22;8035;51.962;7.162;2023-05-07T14:35:05;20.90;99.90
15872;DHT22;8035;51.962;7.162;2023-05-07T14:37:31;20.80;99.90
15872;DHT22;8035;51.962;7.162;2023-05-07T14:39:56;20.80;99.90
15872;DHT22;8035;51.962;7.162;2023-05-07T14:42:22;20.80;99.90
15872;DHT22;8035;51.962;7.162;2023-05-07T14:44:47;20.80;99.90
15872;DHT22;8035;51.962;7.162;2023-05-07T14:47:13;20.80;99.90
15872;DHT22;8035;51.962;7.162;2023-05-07T14:49:39;20.60;99.90
15872;DHT22;8035;51.962;7.162;2023-05-07T14:52:06;20.60;99.90
15872;DHT22;8035;51.962;7.162;2023-05-07T14:54:34;20.50;99.90
15872;DHT22;8035;51.962;7.162;2023-05-07T14:57:01;20.40;99.90
15872;DHT22;8035;51.962;7.162;2023-05-07T14:59:27;20.40;99.90
15872;DHT22;8035;51.962;7.162;2023-05-07T15:01:52;20.40;99.90
15872;DHT22;8035;51.962;7.162;2023-05-07T15:04:18;20.30;99.90
15872;DHT22;8035;51.962;7.162;2023-05-07T15:06:44;20.30;99.90
15872;DHT22;8035;51.962;7.162;2023-05-07T15:09:09;20.30;99.90
15872;DHT22;8035;51.962;7.162;2023-05-07T15:11:35;20.40;99.90
15872;DHT22;8035;51.962;7.162;2023-05-07T15:14:00;20.30;99.90
15872;DHT22;8035;51.962;7.162;2023-05-07T15:16:26;20.30;99.90
15872;DHT22;8035;51.962;7.162;2023-05-07T15:18:51;20.30;99.90
15872;DHT22;8035;51.962;7.162;2023-05-07T15:21:17;20.20;99.90
15872;DHT22;8035;51.962;7.162;2023-05-07T15:23:43;20.20;99.90
15872;DHT22;8035;51.962;7.162;2023-05-07T15:26:10;20.10;99.90
15872;DHT22;8035;51.962;7.162;2023-05-07T15:28:36;20.10;99.90
15872;DHT22;8035;51.962;7.162;2023-05-07T15:31:01;20.10;99.90
15872;DHT22;8035;51.962;7.162;2023-05-07T15:33:27;20.10;99.90
15872;DHT22;8035;51.962;7.162;2023-05-07T15:35:52;20.10;99.90
15872;DHT22;8035;51.962;7.162;2023-05-07T15:38:18;20.10;99.90
15872;DHT22;8035;51.962;7.162;2023-05-07T15:40:44;20.00;99.90
15872;DHT22;8035;51.962;7.162;2023-05-07T15:43:10;19.90;99.90
15872;DHT22;8035;51.962;7.162;2023-05-07T15:45:39;20.00;99.90
15872;DHT22;8035;51.962;7.162;2023-05-07T15:48:05;19.90;99.90
15872;DHT22;8035;51.962;7.162;2023-05-07T15:50:31;19.90;99.90
15872;DHT22;8035;51.962;7.162;2023-05-07T15:52:57;19.90;99.90